createdAt,value
2019-05-07T00:03:45.098Z,16.54
2019-05-07T00:08:52.561Z,16.27
2019-05-07T00:13:59.930Z,16.73
2019-05-07T00:19:07.335Z,15.91
2019-05-07T00:24:14.781Z,15.62
2019-05-07T00:29:22.524Z,14.66
2019-05-07T00:34:29.137Z,16.28
2019-05-07T00:39:36.480Z,16.57
2019-05-07T00:44:43.916Z,16.00
2019-05-07T00:49:52.257Z,15.42
2019-05-07T00:54:58.325Z,14.57
2019-05-07T01:00:05.667Z,14.13
2019-05-07T01:05:13.136Z,14.22
2019-05-07T01:10:22.284Z,13.83
2019-05-07T01:15:31.338Z,12.74
2019-05-07T01:20:34.653Z,14.07
2019-05-07T01:25:42.990Z,14.30
2019-05-07T01:30:49.056Z,14.58
2019-05-07T01:35:56.462Z,15.56
2019-05-07T01:41:03.860Z,15.65
2019-05-07T01:46:12.252Z,16.13
2019-05-07T01:51:18.204Z,16.17
2019-05-07T01:56:25.606Z,16.00
2019-05-07T02:01:35.801Z,16.64
2019-05-07T02:06:40.056Z,16.53
2019-05-07T02:11:47.566Z,16.49
2019-05-07T02:16:55.106Z,16.37
2019-05-07T02:22:02.946Z,16.43
2019-05-07T02:27:09.431Z,16.81
2019-05-07T02:32:16.828Z,16.41
2019-05-07T02:37:27.397Z,16.50
2019-05-07T02:42:33.630Z,16.44
2019-05-07T02:47:38.185Z,16.37
2019-05-07T02:52:45.632Z,16.67
2019-05-07T02:57:54.074Z,16.90
2019-05-07T03:03:00.189Z,16.62
2019-05-07T03:08:07.562Z,17.09
2019-05-07T03:13:14.991Z,16.88
2019-05-07T03:18:23.363Z,17.53
2019-05-07T03:23:29.419Z,17.40
2019-05-07T03:28:36.868Z,16.91
2019-05-07T03:33:47.123Z,17.73
2019-05-07T03:38:53.673Z,16.86
2019-05-07T03:43:58.237Z,18.84
2019-05-07T03:49:05.728Z,19.01
2019-05-07T03:54:14.511Z,19.18
2019-05-07T03:59:22.830Z,19.76
2019-05-07T04:04:27.051Z,17.66
2019-05-07T04:09:35.974Z,19.37
2019-05-07T04:14:43.484Z,19.40
2019-05-07T04:19:53.286Z,19.71
2019-05-07T04:24:57.983Z,19.84
2019-05-07T04:30:05.657Z,20.04
2019-05-07T04:35:13.122Z,20.41
2019-05-07T04:40:23.688Z,20.42
2019-05-07T04:45:27.650Z,20.76
2019-05-07T04:50:42.655Z,20.58
2019-05-07T04:55:43.096Z,20.33
2019-05-07T05:00:49.023Z,21.64
2019-05-07T05:05:56.454Z,21.84
2019-05-07T05:11:03.841Z,21.75
2019-05-07T05:16:12.601Z,22.16
2019-05-07T05:21:18.175Z,21.70
2019-05-07T05:26:25.638Z,20.83
2019-05-07T05:31:33.257Z,22.17
2019-05-07T05:36:42.558Z,23.76
2019-05-07T05:41:47.581Z,24.12
2019-05-07T05:46:55.039Z,23.63
2019-05-07T05:52:02.485Z,23.79
2019-05-07T05:57:12.138Z,24.03
2019-05-07T06:02:16.842Z,25.62
2019-05-07T06:07:24.322Z,26.26
2019-05-07T06:12:32.779Z,27.15
2019-05-07T06:17:38.712Z,26.05
2019-05-07T06:22:46.099Z,26.54
2019-05-07T06:27:53.543Z,23.76
2019-05-07T06:33:02.820Z,23.28
2019-05-07T06:38:08.077Z,20.47
2019-05-07T06:43:15.683Z,23.36
2019-05-07T06:48:38.085Z,20.89
2019-05-07T06:53:29.973Z,20.89
2019-05-07T06:58:37.378Z,19.64
2019-05-07T07:03:44.785Z,18.68
2019-05-07T07:08:52.666Z,17.34
2019-05-07T07:13:59.169Z,16.64
2019-05-07T07:19:06.640Z,18.31
2019-05-07T07:24:14.011Z,18.23
2019-05-07T07:29:22.076Z,17.67
2019-05-07T07:34:29.050Z,17.95
2019-05-07T07:39:36.450Z,20.65
2019-05-07T07:44:43.846Z,20.85
2019-05-07T07:49:52.585Z,20.08
2019-05-07T07:54:58.228Z,20.45
2019-05-07T08:00:05.707Z,17.71
2019-05-07T08:05:13.224Z,19.76
2019-05-07T08:10:22.156Z,19.11
2019-05-07T08:15:27.632Z,19.32
2019-05-07T08:20:35.091Z,19.09
2019-05-07T08:25:42.700Z,20.05
2019-05-07T08:30:49.996Z,19.46
2019-05-07T08:35:57.500Z,16.78
2019-05-07T08:41:05.142Z,16.03
2019-05-07T08:46:12.825Z,14.50
2019-05-07T08:51:22.387Z,17.51
2019-05-07T08:56:28.411Z,16.97
2019-05-07T09:01:35.937Z,16.29
2019-05-07T09:06:43.366Z,15.93
2019-05-07T09:11:51.916Z,15.47
2019-05-07T09:16:57.694Z,19.25
2019-05-07T09:22:05.076Z,19.23
2019-05-07T09:27:12.535Z,17.99
2019-05-07T09:32:22.593Z,13.68
2019-05-07T09:37:26.841Z,17.82
2019-05-07T09:42:34.273Z,15.57
2019-05-07T09:47:41.888Z,18.30
2019-05-07T09:52:49.029Z,17.76
2019-05-07T09:57:56.491Z,17.91
2019-05-07T10:03:03.843Z,19.12
2019-05-07T10:08:12.876Z,18.63
2019-05-07T10:13:18.225Z,16.80
2019-05-07T10:18:25.645Z,15.35
2019-05-07T10:23:33.071Z,15.33
2019-05-07T10:28:42.373Z,15.46
2019-05-07T10:33:47.581Z,15.84
2019-05-07T10:38:54.940Z,14.98
2019-05-07T10:44:02.592Z,13.80
2019-05-07T10:49:12.193Z,15.59
2019-05-07T10:54:17.476Z,11.84
2019-05-07T10:59:24.898Z,11.30
2019-05-07T11:04:40.187Z,11.20
2019-05-07T11:09:39.438Z,10.76
2019-05-07T11:14:47.042Z,9.34
2019-05-07T11:19:54.499Z,8.67
2019-05-07T11:25:03.017Z,7.85
2019-05-07T11:30:08.978Z,7.50
2019-05-07T11:35:16.368Z,7.77
2019-05-07T11:40:23.845Z,7.95
2019-05-07T11:45:32.148Z,9.63
2019-05-07T11:50:38.202Z,10.86
2019-05-07T11:55:45.697Z,9.29
2019-05-07T12:00:53.116Z,11.23
2019-05-07T12:06:02.074Z,10.31
2019-05-07T12:11:07.638Z,11.49
2019-05-07T12:16:15.011Z,9.29
2019-05-07T12:21:24.244Z,9.07
2019-05-07T12:26:29.466Z,9.79
2019-05-07T12:31:36.851Z,8.41
2019-05-07T12:36:44.214Z,8.69
2019-05-07T12:41:52.453Z,7.54
2019-05-07T12:46:58.656Z,8.27
2019-05-07T12:52:06.026Z,7.96
2019-05-07T12:57:13.523Z,5.98
2019-05-07T13:02:36.400Z,7.36
2019-05-07T13:07:28.137Z,9.37
2019-05-07T13:12:35.604Z,8.49
2019-05-07T13:17:43.065Z,10.58
2019-05-07T13:22:50.512Z,9.19
2019-05-07T13:27:57.978Z,8.53
2019-05-07T13:33:05.365Z,7.16
2019-05-07T13:38:14.671Z,6.76
2019-05-07T13:43:20.557Z,8.41
2019-05-07T13:48:28.161Z,7.79
2019-05-07T13:53:35.671Z,6.75
2019-05-07T13:58:43.124Z,7.45
2019-05-07T14:03:50.682Z,7.33
2019-05-07T14:08:58.352Z,8.41
2019-05-07T14:14:05.852Z,9.03
2019-05-07T14:19:13.266Z,8.68
2019-05-07T14:24:22.447Z,8.16
2019-05-07T14:29:27.743Z,8.00
2019-05-07T14:34:35.178Z,9.31
2019-05-07T14:39:42.665Z,9.66
2019-05-07T14:44:52.617Z,10.30
2019-05-07T14:49:58.327Z,9.66
2019-05-07T14:55:05.994Z,8.70
2019-05-07T15:00:13.592Z,9.18
2019-05-07T15:05:22.363Z,9.39
2019-05-07T15:10:28.808Z,8.56
2019-05-07T15:15:36.313Z,9.34
2019-05-07T15:20:44.110Z,7.24
2019-05-07T15:25:51.821Z,7.13
2019-05-07T15:30:59.174Z,7.40
2019-05-07T15:36:06.777Z,7.89
2019-05-07T15:41:14.202Z,7.23
2019-05-07T15:46:22.734Z,7.87
2019-05-07T15:51:28.925Z,8.10
2019-05-07T15:56:36.430Z,7.51
2019-05-07T16:01:43.927Z,7.15
2019-05-07T16:06:52.809Z,7.61
2019-05-07T16:11:58.439Z,7.78
2019-05-07T16:17:05.876Z,6.74
2019-05-07T16:22:13.720Z,6.67
2019-05-07T16:27:22.431Z,6.26
2019-05-07T16:32:28.602Z,7.45
2019-05-07T16:37:36.119Z,6.40
2019-05-07T16:42:43.577Z,7.66
2019-05-07T16:47:52.140Z,7.74
2019-05-07T16:52:57.947Z,8.24
2019-05-07T16:58:05.416Z,6.96
2019-05-07T17:03:12.902Z,9.54
2019-05-07T17:08:22.230Z,7.57
2019-05-07T17:13:27.241Z,9.03
2019-05-07T17:18:34.717Z,8.93
2019-05-07T17:23:44.615Z,8.31
2019-05-07T17:28:49.342Z,5.87
2019-05-07T17:33:56.898Z,9.05
2019-05-07T17:39:04.470Z,7.64
2019-05-07T17:44:12.037Z,6.52
2019-05-07T17:49:19.458Z,5.89
2019-05-07T17:54:26.951Z,6.16
2019-05-07T17:59:34.436Z,6.08
2019-05-07T18:04:50.871Z,6.39
2019-05-07T18:09:49.131Z,5.56
2019-05-07T18:14:56.824Z,5.55
2019-05-07T18:20:04.498Z,6.06
2019-05-07T18:25:12.486Z,5.71
2019-05-07T18:30:19.510Z,6.44
2019-05-07T18:35:29.354Z,6.08
2019-05-07T18:40:36.771Z,6.22
2019-05-07T18:45:44.230Z,7.01
2019-05-07T18:50:52.255Z,6.85
2019-05-07T18:55:58.844Z,7.03
2019-05-07T19:01:06.406Z,7.30
2019-05-07T19:06:13.970Z,8.46
2019-05-07T19:11:22.837Z,8.93
2019-05-07T19:16:28.489Z,32.76
2019-05-07T19:21:36.541Z,8.68
2019-05-07T19:26:44.577Z,8.60
2019-05-07T19:31:52.605Z,8.37
2019-05-07T19:36:59.810Z,8.65
2019-05-07T19:42:07.429Z,7.97
2019-05-07T19:47:15.231Z,7.83
2019-05-07T19:52:23.512Z,7.62
2019-05-07T19:57:33.005Z,7.28
2019-05-07T20:02:38.029Z,7.50
2019-05-07T20:07:45.551Z,7.65
2019-05-07T20:12:53.102Z,7.60
2019-05-07T20:18:00.531Z,8.21
2019-05-07T20:23:08.165Z,7.84
2019-05-07T20:28:16.631Z,7.27
2019-05-07T20:33:22.845Z,6.99
2019-05-07T20:38:32.092Z,7.30
2019-05-07T20:43:37.396Z,8.01
2019-05-07T20:48:45.129Z,8.17
2019-05-07T20:53:52.893Z,7.68
2019-05-07T20:59:02.804Z,8.43
2019-05-07T21:04:07.638Z,8.48
2019-05-07T21:09:15.086Z,8.86
2019-05-07T21:14:22.935Z,9.25
2019-05-07T21:19:30.453Z,9.39
2019-05-07T21:24:37.869Z,9.10
2019-05-07T21:29:45.367Z,9.70
2019-05-07T21:34:52.890Z,9.06
2019-05-07T21:40:02.441Z,9.54
2019-05-07T21:45:07.819Z,9.50
2019-05-07T21:50:15.362Z,9.59
2019-05-07T21:55:22.932Z,9.41
2019-05-07T22:00:32.350Z,9.48
2019-05-07T22:05:37.587Z,9.05
2019-05-07T22:10:45.164Z,8.84
2019-05-07T22:15:55.078Z,8.74
2019-05-07T22:20:59.998Z,8.54
2019-05-07T22:26:18.949Z,8.68
2019-05-07T22:31:14.806Z,8.32
2019-05-07T22:36:22.296Z,8.18
2019-05-07T22:41:31.707Z,8.42
2019-05-07T22:46:36.848Z,8.52
2019-05-07T22:51:44.329Z,7.90
2019-05-07T22:56:52.488Z,7.94
2019-05-07T23:01:58.849Z,7.77
2019-05-07T23:07:06.321Z,7.35
2019-05-07T23:12:14.050Z,8.10
2019-05-07T23:17:22.250Z,7.85
2019-05-07T23:22:28.642Z,7.45
2019-05-07T23:27:36.040Z,8.42
2019-05-07T23:32:43.549Z,8.21
2019-05-07T23:37:52.950Z,7.86
2019-05-07T23:42:57.983Z,7.37
2019-05-07T23:48:05.537Z,7.27
2019-05-07T23:53:13.209Z,6.96
2019-05-07T23:58:22.949Z,7.33
